sensor_id;sensor_type;location;lat;lon;timestamp;pressure;altitude;pressure_sealevel;temperature;humidity
26775;BME280;14362;51.902;7.626;2022-08-11T00:03:24;101695.72;;;20.42;60.10
26775;BME280;14362;51.902;7.626;2022-08-11T00:07:27;101686.22;;;20.34;61.08
26775;BME280;14362;51.902;7.626;2022-08-11T00:11:33;101688.78;;;20.24;61.18
26775;BME280;14362;51.902;7.626;2022-08-11T00:15:43;101688.13;;;20.15;61.86
26775;BME280;14362;51.902;7.626;2022-08-11T00:19:46;101685.94;;;20.08;61.88
26775;BME280;14362;51.902;7.626;2022-08-11T00:23:53;101687.41;;;20.02;62.59
26775;BME280;14362;51.902;7.626;2022-08-11T00:27:55;101688.50;;;19.98;63.87
26775;BME280;14362;51.902;7.626;2022-08-11T00:31:59;101694.41;;;19.93;63.24
26775;BME280;14362;51.902;7.626;2022-08-11T00:36:01;101687.47;;;19.90;63.51
26775;BME280;14362;51.902;7.626;2022-08-11T00:40:07;101690.56;;;19.85;64.31
26775;BME280;14362;51.902;7.626;2022-08-11T00:44:26;101690.84;;;19.80;64.88
26775;BME280;14362;51.902;7.626;2022-08-11T00:48:38;101685.63;;;19.67;65.03
26775;BME280;14362;51.902;7.626;2022-08-11T00:52:56;101697.19;;;19.62;64.89
26775;BME280;14362;51.902;7.626;2022-08-11T00:57:30;101687.44;;;19.59;65.23
26775;BME280;14362;51.902;7.626;2022-08-11T01:01:51;101686.97;;;19.58;64.50
26775;BME280;14362;51.902;7.626;2022-08-11T01:06:09;101695.63;;;19.49;64.45
26775;BME280;14362;51.902;7.626;2022-08-11T01:10:47;101691.31;;;19.40;65.21
26775;BME280;14362;51.902;7.626;2022-08-11T01:15:28;101699.22;;;19.34;66.59
26775;BME280;14362;51.902;7.626;2022-08-11T01:20:05;101692.09;;;19.25;66.63
26775;BME280;14362;51.902;7.626;2022-08-11T01:29:25;101690.44;;;19.12;67.64
26775;BME280;14362;51.902;7.626;2022-08-11T01:38:25;101691.41;;;19.04;67.00
26775;BME280;14362;51.902;7.626;2022-08-11T01:43:08;101692.22;;;19.04;66.99
26775;BME280;14362;51.902;7.626;2022-08-11T01:47:33;101683.75;;;19.04;66.51
26775;BME280;14362;51.902;7.626;2022-08-11T01:52:04;101688.59;;;19.04;67.94
26775;BME280;14362;51.902;7.626;2022-08-11T01:56:19;101692.47;;;18.99;67.75
26775;BME280;14362;51.902;7.626;2022-08-11T02:00:26;101698.03;;;18.96;67.08
26775;BME280;14362;51.902;7.626;2022-08-11T02:04:33;101692.97;;;18.89;67.90
26775;BME280;14362;51.902;7.626;2022-08-11T02:08:46;101690.88;;;18.86;68.51
26775;BME280;14362;51.902;7.626;2022-08-11T02:12:53;101695.72;;;18.86;68.76
26775;BME280;14362;51.902;7.626;2022-08-11T02:17:04;101695.09;;;18.80;69.13
26775;BME280;14362;51.902;7.626;2022-08-11T02:21:10;101702.91;;;18.71;69.26
26775;BME280;14362;51.902;7.626;2022-08-11T02:25:37;101698.19;;;18.63;70.21
26775;BME280;14362;51.902;7.626;2022-08-11T02:29:48;101703.16;;;18.54;72.18
26775;BME280;14362;51.902;7.626;2022-08-11T02:34:04;101705.28;;;18.46;72.07
26775;BME280;14362;51.902;7.626;2022-08-11T02:38:16;101701.50;;;18.42;72.68
26775;BME280;14362;51.902;7.626;2022-08-11T02:42:25;101694.09;;;18.37;73.23
26775;BME280;14362;51.902;7.626;2022-08-11T02:46:37;101692.69;;;18.31;72.90
26775;BME280;14362;51.902;7.626;2022-08-11T02:50:48;101699.28;;;18.23;73.44
26775;BME280;14362;51.902;7.626;2022-08-11T02:55:03;101696.47;;;18.23;73.25
26775;BME280;14362;51.902;7.626;2022-08-11T02:59:19;101705.13;;;18.18;73.35
26775;BME280;14362;51.902;7.626;2022-08-11T03:03:50;101711.34;;;18.12;73.70
26775;BME280;14362;51.902;7.626;2022-08-11T03:08:13;101704.66;;;18.04;74.71
26775;BME280;14362;51.902;7.626;2022-08-11T03:12:23;101700.41;;;17.98;74.83
26775;BME280;14362;51.902;7.626;2022-08-11T03:16:49;101707.09;;;17.94;74.65
26775;BME280;14362;51.902;7.626;2022-08-11T03:21:01;101702.16;;;17.91;75.07
26775;BME280;14362;51.902;7.626;2022-08-11T03:25:11;101702.53;;;17.89;75.13
26775;BME280;14362;51.902;7.626;2022-08-11T03:29:22;101694.28;;;17.84;74.83
26775;BME280;14362;51.902;7.626;2022-08-11T03:33:29;101704.13;;;17.78;75.20
26775;BME280;14362;51.902;7.626;2022-08-11T03:37:55;101700.28;;;17.83;75.54
26775;BME280;14362;51.902;7.626;2022-08-11T03:42:16;101698.28;;;17.83;74.46
26775;BME280;14362;51.902;7.626;2022-08-11T03:46:26;101699.81;;;17.81;75.43
26775;BME280;14362;51.902;7.626;2022-08-11T03:50:52;101694.75;;;17.86;74.08
26775;BME280;14362;51.902;7.626;2022-08-11T03:55:03;101692.25;;;17.85;73.94
26775;BME280;14362;51.902;7.626;2022-08-11T03:59:48;101695.22;;;17.88;74.38
26775;BME280;14362;51.902;7.626;2022-08-11T04:04:04;101698.06;;;17.88;73.52
26775;BME280;14362;51.902;7.626;2022-08-11T04:08:26;101697.78;;;17.81;74.11
26775;BME280;14362;51.902;7.626;2022-08-11T04:12:56;101685.44;;;17.86;74.16
26775;BME280;14362;51.902;7.626;2022-08-11T04:17:47;101684.28;;;17.87;73.51
26775;BME280;14362;51.902;7.626;2022-08-11T04:27:09;101690.53;;;17.92;74.82
26775;BME280;14362;51.902;7.626;2022-08-11T04:31:32;101683.69;;;17.93;73.93
26775;BME280;14362;51.902;7.626;2022-08-11T04:35:49;101688.91;;;17.91;73.81
26775;BME280;14362;51.902;7.626;2022-08-11T04:45:06;101686.88;;;18.04;73.33
26775;BME280;14362;51.902;7.626;2022-08-11T04:49:32;101696.78;;;18.10;71.99
26775;BME280;14362;51.902;7.626;2022-08-11T04:53:59;101702.53;;;18.13;72.49
26775;BME280;14362;51.902;7.626;2022-08-11T04:58:30;101690.69;;;18.20;72.22
26775;BME280;14362;51.902;7.626;2022-08-11T05:08:15;101699.06;;;18.40;71.21
26775;BME280;14362;51.902;7.626;2022-08-11T05:12:29;101693.19;;;18.45;71.13
26775;BME280;14362;51.902;7.626;2022-08-11T05:16:41;101695.28;;;18.60;69.86
26775;BME280;14362;51.902;7.626;2022-08-11T05:21:18;101696.09;;;18.72;69.25
26775;BME280;14362;51.902;7.626;2022-08-11T05:25:55;101694.19;;;18.76;70.51
26775;BME280;14362;51.902;7.626;2022-08-11T05:30:15;101692.97;;;18.89;69.92
26775;BME280;14362;51.902;7.626;2022-08-11T05:34:42;101700.13;;;18.99;69.59
26775;BME280;14362;51.902;7.626;2022-08-11T05:38:55;101699.41;;;19.14;68.39
26775;BME280;14362;51.902;7.626;2022-08-11T05:43:17;101694.06;;;19.24;67.80
26775;BME280;14362;51.902;7.626;2022-08-11T05:47:36;101699.41;;;19.41;66.75
26775;BME280;14362;51.902;7.626;2022-08-11T05:51:55;101699.22;;;19.61;66.68
26775;BME280;14362;51.902;7.626;2022-08-11T05:56:15;101699.75;;;19.67;66.60
26775;BME280;14362;51.902;7.626;2022-08-11T06:00:19;101697.53;;;19.88;64.20
26775;BME280;14362;51.902;7.626;2022-08-11T06:04:23;101702.47;;;20.06;62.45
26775;BME280;14362;51.902;7.626;2022-08-11T06:08:29;101699.75;;;20.25;61.86
26775;BME280;14362;51.902;7.626;2022-08-11T06:12:36;101697.72;;;20.41;61.30
26775;BME280;14362;51.902;7.626;2022-08-11T06:16:41;101704.38;;;20.49;61.75
26775;BME280;14362;51.902;7.626;2022-08-11T06:20:48;101699.59;;;20.68;59.50
26775;BME280;14362;51.902;7.626;2022-08-11T06:24:52;101699.84;;;20.78;59.08
26775;BME280;14362;51.902;7.626;2022-08-11T06:28:55;101705.94;;;20.96;57.09
26775;BME280;14362;51.902;7.626;2022-08-11T06:33:00;101701.41;;;21.10;57.24
26775;BME280;14362;51.902;7.626;2022-08-11T06:37:14;101705.84;;;21.27;55.78
26775;BME280;14362;51.902;7.626;2022-08-11T06:41:20;101710.81;;;21.52;53.96
26775;BME280;14362;51.902;7.626;2022-08-11T06:45:33;101701.63;;;21.77;54.08
26775;BME280;14362;51.902;7.626;2022-08-11T06:49:43;101702.72;;;22.14;53.22
26775;BME280;14362;51.902;7.626;2022-08-11T06:54:03;101703.16;;;22.61;50.89
26775;BME280;14362;51.902;7.626;2022-08-11T06:58:11;101705.03;;;23.05;49.90
26775;BME280;14362;51.902;7.626;2022-08-11T07:02:32;101699.56;;;23.49;49.30
26775;BME280;14362;51.902;7.626;2022-08-11T07:06:53;101693.47;;;23.83;47.36
26775;BME280;14362;51.902;7.626;2022-08-11T07:11:30;101696.97;;;24.06;45.94
26775;BME280;14362;51.902;7.626;2022-08-11T07:16:02;101684.53;;;24.28;45.08
26775;BME280;14362;51.902;7.626;2022-08-11T07:20:05;101696.91;;;24.46;45.15
26775;BME280;14362;51.902;7.626;2022-08-11T07:24:29;101698.75;;;24.68;44.94
26775;BME280;14362;51.902;7.626;2022-08-11T07:28:50;101690.69;;;24.80;44.93
26775;BME280;14362;51.902;7.626;2022-08-11T07:32:59;101699.75;;;24.96;44.36
26775;BME280;14362;51.902;7.626;2022-08-11T07:37:08;101681.47;;;25.07;44.59
26775;BME280;14362;51.902;7.626;2022-08-11T07:41:14;101695.47;;;25.23;42.79
26775;BME280;14362;51.902;7.626;2022-08-11T07:45:16;101704.13;;;25.44;40.74
26775;BME280;14362;51.902;7.626;2022-08-11T07:49:37;101691.91;;;25.50;45.67
26775;BME280;14362;51.902;7.626;2022-08-11T07:53:56;101697.25;;;25.55;42.22
26775;BME280;14362;51.902;7.626;2022-08-11T07:57:59;101686.25;;;25.68;43.27
26775;BME280;14362;51.902;7.626;2022-08-11T08:02:18;101687.06;;;25.68;44.67
26775;BME280;14362;51.902;7.626;2022-08-11T08:06:38;101690.31;;;25.63;44.16
26775;BME280;14362;51.902;7.626;2022-08-11T08:10:58;101683.00;;;25.66;43.69
26775;BME280;14362;51.902;7.626;2022-08-11T08:15:20;101692.78;;;25.65;44.86
26775;BME280;14362;51.902;7.626;2022-08-11T08:19:42;101698.50;;;25.65;43.86
26775;BME280;14362;51.902;7.626;2022-08-11T08:23:45;101688.72;;;25.76;44.64
26775;BME280;14362;51.902;7.626;2022-08-11T08:27:48;101689.53;;;25.77;44.03
26775;BME280;14362;51.902;7.626;2022-08-11T08:31:52;101689.63;;;25.94;43.64
26775;BME280;14362;51.902;7.626;2022-08-11T08:35:58;101694.13;;;26.09;43.42
26775;BME280;14362;51.902;7.626;2022-08-11T08:40:12;101695.38;;;26.18;41.17
26775;BME280;14362;51.902;7.626;2022-08-11T08:44:14;101686.38;;;26.34;43.25
26775;BME280;14362;51.902;7.626;2022-08-11T08:48:23;101676.19;;;26.43;41.38
26775;BME280;14362;51.902;7.626;2022-08-11T08:52:28;101672.09;;;26.65;39.63
26775;BME280;14362;51.902;7.626;2022-08-11T08:56:31;101681.09;;;26.67;40.98
26775;BME280;14362;51.902;7.626;2022-08-11T09:00:38;101674.94;;;26.86;40.74
26775;BME280;14362;51.902;7.626;2022-08-11T09:04:43;101677.34;;;26.95;38.46
26775;BME280;14362;51.902;7.626;2022-08-11T09:08:45;101688.00;;;27.05;40.29
26775;BME280;14362;51.902;7.626;2022-08-11T09:12:49;101678.56;;;27.14;40.34
26775;BME280;14362;51.902;7.626;2022-08-11T09:16:51;101678.56;;;27.14;39.41
26775;BME280;14362;51.902;7.626;2022-08-11T09:20:55;101678.06;;;27.37;37.56
26775;BME280;14362;51.902;7.626;2022-08-11T09:24:57;101671.16;;;27.31;37.71
26775;BME280;14362;51.902;7.626;2022-08-11T09:29:16;101671.06;;;27.45;37.38
26775;BME280;14362;51.902;7.626;2022-08-11T09:33:18;101666.50;;;27.61;36.75
26775;BME280;14362;51.902;7.626;2022-08-11T09:37:22;101656.25;;;27.71;34.27
26775;BME280;14362;51.902;7.626;2022-08-11T09:41:42;101663.06;;;27.87;34.73
26775;BME280;14362;51.902;7.626;2022-08-11T09:45:46;101659.44;;;27.80;35.14
26775;BME280;14362;51.902;7.626;2022-08-11T09:49:53;101660.97;;;27.95;34.62
26775;BME280;14362;51.902;7.626;2022-08-11T09:54:01;101661.78;;;28.02;34.89
26775;BME280;14362;51.902;7.626;2022-08-11T09:58:05;101647.69;;;28.21;33.15
26775;BME280;14362;51.902;7.626;2022-08-11T10:02:22;101649.28;;;28.29;33.97
26775;BME280;14362;51.902;7.626;2022-08-11T10:06:27;101650.41;;;28.42;33.08
26775;BME280;14362;51.902;7.626;2022-08-11T10:10:49;101653.22;;;28.49;31.69
26775;BME280;14362;51.902;7.626;2022-08-11T10:14:52;101645.81;;;28.52;31.86
26775;BME280;14362;51.902;7.626;2022-08-11T10:19:12;101642.88;;;28.55;30.85
26775;BME280;14362;51.902;7.626;2022-08-11T10:23:16;101637.97;;;28.56;31.60
26775;BME280;14362;51.902;7.626;2022-08-11T10:27:38;101634.72;;;28.54;30.98
26775;BME280;14362;51.902;7.626;2022-08-11T10:31:39;101622.03;;;28.51;31.08
26775;BME280;14362;51.902;7.626;2022-08-11T10:35:58;101623.09;;;28.68;30.85
26775;BME280;14362;51.902;7.626;2022-08-11T10:40:01;101626.63;;;28.82;30.54
26775;BME280;14362;51.902;7.626;2022-08-11T10:44:05;101621.34;;;28.77;30.28
26775;BME280;14362;51.902;7.626;2022-08-11T10:48:08;101623.38;;;28.80;30.02
26775;BME280;14362;51.902;7.626;2022-08-11T10:52:10;101617.69;;;28.73;30.53
26775;BME280;14362;51.902;7.626;2022-08-11T10:56:31;101609.72;;;28.91;30.40
26775;BME280;14362;51.902;7.626;2022-08-11T11:00:52;101599.75;;;29.03;29.50
26775;BME280;14362;51.902;7.626;2022-08-11T11:04:58;101611.22;;;29.03;29.83
26775;BME280;14362;51.902;7.626;2022-08-11T11:09:04;101592.31;;;29.09;30.99
26775;BME280;14362;51.902;7.626;2022-08-11T11:13:07;101608.56;;;29.18;30.19
26775;BME280;14362;51.902;7.626;2022-08-11T11:17:31;101606.53;;;29.19;29.44
26775;BME280;14362;51.902;7.626;2022-08-11T11:21:54;101596.59;;;29.23;29.80
26775;BME280;14362;51.902;7.626;2022-08-11T11:26:32;101594.06;;;29.29;29.12
26775;BME280;14362;51.902;7.626;2022-08-11T11:30:44;101585.41;;;29.32;30.12
26775;BME280;14362;51.902;7.626;2022-08-11T11:35:04;101578.31;;;29.44;28.59
26775;BME280;14362;51.902;7.626;2022-08-11T11:39:11;101583.69;;;29.42;28.72
26775;BME280;14362;51.902;7.626;2022-08-11T11:43:13;101579.59;;;29.66;27.93
26775;BME280;14362;51.902;7.626;2022-08-11T11:47:15;101574.47;;;29.54;28.92
26775;BME280;14362;51.902;7.626;2022-08-11T11:51:20;101572.75;;;29.60;29.62
26775;BME280;14362;51.902;7.626;2022-08-11T11:55:23;101567.38;;;29.62;28.96
26775;BME280;14362;51.902;7.626;2022-08-11T11:59:26;101556.78;;;29.55;29.45
26775;BME280;14362;51.902;7.626;2022-08-11T12:03:48;101543.59;;;28.28;35.47
26775;BME280;14362;51.902;7.626;2022-08-11T12:07:52;101539.00;;;27.90;39.81
26775;BME280;14362;51.902;7.626;2022-08-11T12:12:14;101539.88;;;28.31;31.93
26775;BME280;14362;51.902;7.626;2022-08-11T12:16:34;101544.03;;;28.63;29.76
26775;BME280;14362;51.902;7.626;2022-08-11T12:20:36;101539.41;;;28.73;29.26
26775;BME280;14362;51.902;7.626;2022-08-11T12:24:40;101536.34;;;28.90;29.47
26775;BME280;14362;51.902;7.626;2022-08-11T12:29:00;101536.19;;;29.30;29.77
26775;BME280;14362;51.902;7.626;2022-08-11T12:33:02;101526.91;;;29.19;29.30
26775;BME280;14362;51.902;7.626;2022-08-11T12:37:05;101524.41;;;29.21;32.03
26775;BME280;14362;51.902;7.626;2022-08-11T12:41:11;101518.25;;;28.93;31.66
26775;BME280;14362;51.902;7.626;2022-08-11T12:45:31;101502.03;;;28.76;31.75
26775;BME280;14362;51.902;7.626;2022-08-11T12:49:35;101507.94;;;28.99;30.27
26775;BME280;14362;51.902;7.626;2022-08-11T12:53:58;101496.91;;;29.24;29.13
26775;BME280;14362;51.902;7.626;2022-08-11T12:58:04;101493.38;;;29.39;30.40
26775;BME280;14362;51.902;7.626;2022-08-11T13:02:18;101499.50;;;29.68;29.42
26775;BME280;14362;51.902;7.626;2022-08-11T13:06:38;101487.34;;;29.83;28.48
26775;BME280;14362;51.902;7.626;2022-08-11T13:10:42;101485.53;;;29.93;28.74
26775;BME280;14362;51.902;7.626;2022-08-11T13:15:03;101482.19;;;29.94;28.32
26775;BME280;14362;51.902;7.626;2022-08-11T13:19:06;101474.03;;;29.93;29.20
26775;BME280;14362;51.902;7.626;2022-08-11T13:23:08;101464.88;;;30.01;28.95
26775;BME280;14362;51.902;7.626;2022-08-11T13:27:14;101462.13;;;30.36;29.96
26775;BME280;14362;51.902;7.626;2022-08-11T13:31:18;101458.88;;;30.34;29.83
26775;BME280;14362;51.902;7.626;2022-08-11T13:35:21;101464.84;;;30.43;30.10
26775;BME280;14362;51.902;7.626;2022-08-11T13:39:24;101449.16;;;30.48;29.00
26775;BME280;14362;51.902;7.626;2022-08-11T13:43:27;101455.88;;;30.61;29.29
26775;BME280;14362;51.902;7.626;2022-08-11T13:47:31;101453.22;;;30.70;28.36
26775;BME280;14362;51.902;7.626;2022-08-11T13:51:32;101458.22;;;30.85;28.79
26775;BME280;14362;51.902;7.626;2022-08-11T13:55:34;101458.16;;;30.69;29.49
26775;BME280;14362;51.902;7.626;2022-08-11T13:59:36;101440.94;;;30.85;27.81
26775;BME280;14362;51.902;7.626;2022-08-11T14:03:41;101441.53;;;30.77;28.52
26775;BME280;14362;51.902;7.626;2022-08-11T14:07:47;101439.88;;;30.95;28.51
26775;BME280;14362;51.902;7.626;2022-08-11T14:11:51;101433.72;;;30.77;28.44
26775;BME280;14362;51.902;7.626;2022-08-11T14:16:15;101425.66;;;30.88;28.45
26775;BME280;14362;51.902;7.626;2022-08-11T14:20:20;101424.78;;;30.91;28.25
26775;BME280;14362;51.902;7.626;2022-08-11T14:24:22;101428.53;;;31.24;27.53
26775;BME280;14362;51.902;7.626;2022-08-11T14:28:24;101421.94;;;31.07;27.48
26775;BME280;14362;51.902;7.626;2022-08-11T14:32:26;101412.41;;;31.10;27.63
26775;BME280;14362;51.902;7.626;2022-08-11T14:36:32;101419.91;;;31.39;26.85
26775;BME280;14362;51.902;7.626;2022-08-11T14:40:34;101411.53;;;31.13;28.15
26775;BME280;14362;51.902;7.626;2022-08-11T14:44:56;101422.97;;;31.33;27.64
26775;BME280;14362;51.902;7.626;2022-08-11T14:49:18;101412.06;;;31.40;26.96
26775;BME280;14362;51.902;7.626;2022-08-11T14:53:22;101406.13;;;31.47;27.50
26775;BME280;14362;51.902;7.626;2022-08-11T14:57:24;101410.44;;;31.39;28.03
26775;BME280;14362;51.902;7.626;2022-08-11T15:01:27;101401.44;;;31.37;27.38
26775;BME280;14362;51.902;7.626;2022-08-11T15:05:52;101394.03;;;31.52;27.21
26775;BME280;14362;51.902;7.626;2022-08-11T15:09:57;101389.75;;;31.44;27.28
26775;BME280;14362;51.902;7.626;2022-08-11T15:14:00;101395.78;;;31.49;26.99
26775;BME280;14362;51.902;7.626;2022-08-11T15:18:05;101387.59;;;31.48;26.54
26775;BME280;14362;51.902;7.626;2022-08-11T15:22:08;101375.84;;;31.55;26.90
26775;BME280;14362;51.902;7.626;2022-08-11T15:26:39;101384.84;;;31.57;26.75
26775;BME280;14362;51.902;7.626;2022-08-11T15:31:01;101376.59;;;31.27;28.66
26775;BME280;14362;51.902;7.626;2022-08-11T15:35:21;101369.03;;;31.33;26.93
26775;BME280;14362;51.902;7.626;2022-08-11T15:39:46;101359.84;;;31.22;26.73
26775;BME280;14362;51.902;7.626;2022-08-11T15:44:09;101355.19;;;31.28;25.87
26775;BME280;14362;51.902;7.626;2022-08-11T15:48:34;101356.22;;;31.34;25.77
26775;BME280;14362;51.902;7.626;2022-08-11T15:52:45;101356.44;;;31.27;26.15
26775;BME280;14362;51.902;7.626;2022-08-11T15:56:49;101361.56;;;31.20;25.78
26775;BME280;14362;51.902;7.626;2022-08-11T16:00:53;101356.34;;;31.15;25.64
26775;BME280;14362;51.902;7.626;2022-08-11T16:05:14;101348.16;;;31.13;26.29
26775;BME280;14362;51.902;7.626;2022-08-11T16:09:19;101349.56;;;31.05;25.72
26775;BME280;14362;51.902;7.626;2022-08-11T16:13:23;101346.59;;;31.09;25.79
26775;BME280;14362;51.902;7.626;2022-08-11T16:17:47;101338.13;;;31.02;25.78
26775;BME280;14362;51.902;7.626;2022-08-11T16:21:51;101334.25;;;30.92;25.93
26775;BME280;14362;51.902;7.626;2022-08-11T16:25:54;101328.22;;;31.03;25.81
26775;BME280;14362;51.902;7.626;2022-08-11T16:29:56;101332.88;;;30.97;26.05
26775;BME280;14362;51.902;7.626;2022-08-11T16:34:01;101327.13;;;30.81;26.11
26775;BME280;14362;51.902;7.626;2022-08-11T16:38:04;101322.53;;;30.83;26.44
26775;BME280;14362;51.902;7.626;2022-08-11T16:42:25;101329.16;;;30.80;26.54
26775;BME280;14362;51.902;7.626;2022-08-11T16:46:43;101320.91;;;30.82;27.17
26775;BME280;14362;51.902;7.626;2022-08-11T16:51:11;101322.69;;;30.76;26.82
26775;BME280;14362;51.902;7.626;2022-08-11T16:55:13;101316.84;;;30.64;26.64
26775;BME280;14362;51.902;7.626;2022-08-11T16:59:17;101329.16;;;30.64;27.79
26775;BME280;14362;51.902;7.626;2022-08-11T17:03:20;101316.19;;;30.56;27.38
26775;BME280;14362;51.902;7.626;2022-08-11T17:07:42;101318.78;;;30.67;26.98
26775;BME280;14362;51.902;7.626;2022-08-11T17:12:02;101315.47;;;30.52;27.50
26775;BME280;14362;51.902;7.626;2022-08-11T17:16:24;101313.06;;;30.47;27.12
26775;BME280;14362;51.902;7.626;2022-08-11T17:20:27;101313.00;;;30.51;27.62
26775;BME280;14362;51.902;7.626;2022-08-11T17:24:34;101302.69;;;30.34;27.80
26775;BME280;14362;51.902;7.626;2022-08-11T17:28:37;101312.94;;;30.35;27.80
26775;BME280;14362;51.902;7.626;2022-08-11T17:32:46;101308.84;;;30.17;27.88
26775;BME280;14362;51.902;7.626;2022-08-11T17:37:06;101307.28;;;30.12;28.26
26775;BME280;14362;51.902;7.626;2022-08-11T17:41:09;101303.25;;;30.10;28.24
26775;BME280;14362;51.902;7.626;2022-08-11T17:45:28;101312.19;;;29.92;28.81
26775;BME280;14362;51.902;7.626;2022-08-11T17:49:50;101309.69;;;29.94;28.97
26775;BME280;14362;51.902;7.626;2022-08-11T17:53:53;101313.22;;;29.82;29.15
26775;BME280;14362;51.902;7.626;2022-08-11T17:58:14;101308.03;;;29.54;31.50
26775;BME280;14362;51.902;7.626;2022-08-11T18:02:35;101305.34;;;29.21;31.22
26775;BME280;14362;51.902;7.626;2022-08-11T18:06:55;101303.09;;;28.86;31.88
26775;BME280;14362;51.902;7.626;2022-08-11T18:10:57;101310.38;;;28.91;31.37
26775;BME280;14362;51.902;7.626;2022-08-11T18:15:19;101316.75;;;28.75;31.03
26775;BME280;14362;51.902;7.626;2022-08-11T18:19:39;101314.88;;;28.65;31.53
26775;BME280;14362;51.902;7.626;2022-08-11T18:24:02;101319.16;;;28.50;31.73
26775;BME280;14362;51.902;7.626;2022-08-11T18:28:25;101322.63;;;28.38;32.04
26775;BME280;14362;51.902;7.626;2022-08-11T18:32:47;101332.22;;;28.28;32.41
26775;BME280;14362;51.902;7.626;2022-08-11T18:37:12;101325.34;;;28.19;32.38
26775;BME280;14362;51.902;7.626;2022-08-11T18:41:35;101322.94;;;28.14;31.91
26775;BME280;14362;51.902;7.626;2022-08-11T18:46:04;101326.06;;;27.93;34.15
26775;BME280;14362;51.902;7.626;2022-08-11T18:50:25;101327.09;;;27.76;35.01
26775;BME280;14362;51.902;7.626;2022-08-11T18:54:47;101333.81;;;27.59;34.39
26775;BME280;14362;51.902;7.626;2022-08-11T18:59:08;101334.34;;;27.44;35.94
26775;BME280;14362;51.902;7.626;2022-08-11T19:03:29;101339.44;;;27.26;38.82
26775;BME280;14362;51.902;7.626;2022-08-11T19:07:53;101344.53;;;27.05;37.45
26775;BME280;14362;51.902;7.626;2022-08-11T19:12:13;101343.78;;;26.94;36.65
26775;BME280;14362;51.902;7.626;2022-08-11T19:16:33;101345.53;;;26.77;37.77
26775;BME280;14362;51.902;7.626;2022-08-11T19:20:55;101346.47;;;26.60;38.52
26775;BME280;14362;51.902;7.626;2022-08-11T19:25:17;101337.56;;;26.48;40.39
26775;BME280;14362;51.902;7.626;2022-08-11T19:29:37;101353.97;;;26.30;38.94
26775;BME280;14362;51.902;7.626;2022-08-11T19:34:00;101358.53;;;26.10;40.73
26775;BME280;14362;51.902;7.626;2022-08-11T19:38:20;101361.44;;;25.93;39.50
26775;BME280;14362;51.902;7.626;2022-08-11T19:42:42;101359.84;;;25.81;40.89
26775;BME280;14362;51.902;7.626;2022-08-11T19:47:01;101367.59;;;25.67;40.23
26775;BME280;14362;51.902;7.626;2022-08-11T19:51:21;101363.97;;;25.49;41.37
26775;BME280;14362;51.902;7.626;2022-08-11T19:55:41;101362.34;;;25.41;41.67
26775;BME280;14362;51.902;7.626;2022-08-11T20:00:05;101366.84;;;25.28;42.05
26775;BME280;14362;51.902;7.626;2022-08-11T20:04:24;101365.22;;;25.13;41.11
26775;BME280;14362;51.902;7.626;2022-08-11T20:08:44;101373.75;;;25.06;42.11
26775;BME280;14362;51.902;7.626;2022-08-11T20:13:05;101366.78;;;24.93;41.50
26775;BME280;14362;51.902;7.626;2022-08-11T20:17:30;101378.19;;;24.83;42.95
26775;BME280;14362;51.902;7.626;2022-08-11T20:21:51;101368.00;;;24.78;41.38
26775;BME280;14362;51.902;7.626;2022-08-11T20:26:10;101370.44;;;24.69;42.41
26775;BME280;14362;51.902;7.626;2022-08-11T20:30:30;101374.91;;;24.60;41.68
26775;BME280;14362;51.902;7.626;2022-08-11T20:34:51;101377.34;;;24.61;42.85
26775;BME280;14362;51.902;7.626;2022-08-11T20:39:14;101380.16;;;24.51;41.97
26775;BME280;14362;51.902;7.626;2022-08-11T20:43:35;101378.06;;;24.44;44.22
26775;BME280;14362;51.902;7.626;2022-08-11T20:47:55;101375.16;;;24.27;43.80
26775;BME280;14362;51.902;7.626;2022-08-11T20:52:18;101369.41;;;24.13;43.86
26775;BME280;14362;51.902;7.626;2022-08-11T20:56:38;101373.44;;;24.05;44.07
26775;BME280;14362;51.902;7.626;2022-08-11T21:00:58;101378.25;;;23.94;44.01
26775;BME280;14362;51.902;7.626;2022-08-11T21:05:17;101384.31;;;23.85;44.20
26775;BME280;14362;51.902;7.626;2022-08-11T21:09:38;101378.16;;;23.77;43.82
26775;BME280;14362;51.902;7.626;2022-08-11T21:14:01;101387.00;;;23.65;43.81
26775;BME280;14362;51.902;7.626;2022-08-11T21:18:21;101389.34;;;23.52;45.67
26775;BME280;14362;51.902;7.626;2022-08-11T21:22:45;101383.56;;;23.42;46.48
26775;BME280;14362;51.902;7.626;2022-08-11T21:27:08;101384.31;;;23.32;46.04
26775;BME280;14362;51.902;7.626;2022-08-11T21:31:30;101387.06;;;23.18;45.46
26775;BME280;14362;51.902;7.626;2022-08-11T21:35:50;101385.34;;;23.10;45.76
26775;BME280;14362;51.902;7.626;2022-08-11T21:40:10;101382.41;;;23.03;46.59
26775;BME280;14362;51.902;7.626;2022-08-11T21:44:32;101381.19;;;23.04;47.57
26775;BME280;14362;51.902;7.626;2022-08-11T21:48:52;101383.88;;;22.83;46.41
26775;BME280;14362;51.902;7.626;2022-08-11T21:53:12;101382.91;;;22.72;47.31
26775;BME280;14362;51.902;7.626;2022-08-11T21:57:32;101388.94;;;22.67;47.57
26775;BME280;14362;51.902;7.626;2022-08-11T22:01:53;101387.75;;;22.68;46.40
26775;BME280;14362;51.902;7.626;2022-08-11T22:06:13;101390.97;;;22.63;47.69
26775;BME280;14362;51.902;7.626;2022-08-11T22:10:33;101390.53;;;22.61;49.36
26775;BME280;14362;51.902;7.626;2022-08-11T22:14:53;101393.44;;;22.68;46.42
26775;BME280;14362;51.902;7.626;2022-08-11T22:19:14;101395.47;;;22.68;45.96
26775;BME280;14362;51.902;7.626;2022-08-11T22:23:37;101383.66;;;22.66;46.59
26775;BME280;14362;51.902;7.626;2022-08-11T22:27:57;101378.72;;;22.59;46.17
26775;BME280;14362;51.902;7.626;2022-08-11T22:32:16;101383.59;;;22.59;45.84
26775;BME280;14362;51.902;7.626;2022-08-11T22:36:39;101380.38;;;22.60;44.96